Time;durP1;ratioP1;P1;durP2;ratioP2;P2;SDS_P1;SDS_P2;PMS_P1;PMS_P2;Temp;Humidity;BMP_temperature;BMP_pressure;BME280_temperature;BME280_humidity;BME280_pressure;Samples;Min_cycle;Max_cycle;Signal;HPM_P1;HPM_P2
2021/03/21 00:00:33;;;;;;;15.18;12.40;;;;;;;;;;4999283;28;20451;-81
2021/03/21 00:03:00;;;;;;;14.80;11.00;;;;;;;;;;4999871;28;20215;-81
2021/03/21 00:05:26;;;;;;;16.90;12.13;;;;;;;;;;4995408;28;20187;-81
2021/03/21 00:07:53;;;;;;;13.70;11.93;;;;;;;;;;4999210;28;20178;-81
2021/03/21 00:10:19;;;;;;;16.92;12.25;;;;;;;;;;4999014;28;20232;-81
2021/03/21 00:12:45;;;;;;;16.38;11.98;;;;;;;;;;4997829;28;20556;-81
2021/03/21 00:15:12;;;;;;;15.02;10.88;;;;;;;;;;5000945;28;20207;-80
2021/03/21 00:17:37;;;;;;;14.60;11.77;;;;;;;;;;5001275;28;20552;-81
2021/03/21 00:20:05;;;;;;;11.60;10.35;;;;;;;;;;5000096;28;20183;-81
2021/03/21 00:22:31;;;;;;;13.45;11.57;;;;;;;;;;5002601;28;20175;-81
2021/03/21 00:24:57;;;;;;;15.60;11.15;;;;;;;;;;4993882;28;20266;-81
2021/03/21 00:27:23;;;;;;;13.65;11.85;;;;;;;;;;4998885;28;20183;-80
2021/03/21 00:29:49;;;;;;;17.38;11.68;;;;;;;;;;4998648;28;20195;-81
2021/03/21 00:32:15;;;;;;;14.02;10.85;;;;;;;;;;4997506;28;20616;-81
2021/03/21 00:34:41;;;;;;;13.75;10.52;;;;;;;;;;5002929;28;20217;-81
2021/03/21 00:37:07;;;;;;;12.65;10.25;;;;;;;;;;5000662;28;20164;-81
2021/03/21 00:39:33;;;;;;;13.55;12.02;;;;;;;;;;4999895;28;20183;-81
2021/03/21 00:41:59;;;;;;;12.55;10.45;;;;;;;;;;5001268;28;20180;-81
2021/03/21 00:44:25;;;;;;;12.35;11.00;;;;;;;;;;5000369;28;20187;-81
2021/03/21 00:46:51;;;;;;;12.63;9.98;;;;;;;;;;4998935;28;20179;-81
2021/03/21 00:49:17;;;;;;;14.00;10.35;;;;;;;;;;5000117;28;20167;-81
2021/03/21 00:51:43;;;;;;;15.20;11.23;;;;;;;;;;4999828;28;20557;-81
2021/03/21 00:54:09;;;;;;;12.70;10.45;;;;;;;;;;4999806;28;20214;-81
2021/03/21 00:56:40;;;;;;;12.10;10.15;;;;;;;;;;5002158;28;20198;-81
2021/03/21 00:59:07;;;;;;;11.27;10.07;;;;;;;;;;5013107;28;20191;-81
2021/03/21 01:01:33;;;;;;;17.80;10.73;;;;;;;;;;5003651;28;20179;-81
2021/03/21 01:04:00;;;;;;;12.10;10.52;;;;;;;;;;4999219;28;20174;-81
2021/03/21 01:06:26;;;;;;;11.13;9.77;;;;;;;;;;4999115;28;20222;-81
2021/03/21 01:08:57;;;;;;;10.73;9.63;;;;;;;;;;5001130;28;20669;-81
2021/03/21 01:11:28;;;;;;;11.25;10.05;;;;;;;;;;5001908;28;20216;-81
2021/03/21 01:13:55;;;;;;;12.50;9.30;;;;;;;;;;4996304;28;20198;-81
2021/03/21 01:16:23;;;;;;;12.18;10.18;;;;;;;;;;5003190;28;20262;-81
2021/03/21 01:18:50;;;;;;;10.57;9.38;;;;;;;;;;4998296;28;20183;-81
2021/03/21 01:21:16;;;;;;;11.75;9.88;;;;;;;;;;4999809;28;20274;-82
2021/03/21 01:23:43;;;;;;;10.75;9.40;;;;;;;;;;5002343;28;20193;-81
2021/03/21 01:26:16;;;;;;;10.25;9.25;;;;;;;;;;4997923;28;20222;-81
2021/03/21 01:28:43;;;;;;;12.18;10.23;;;;;;;;;;4998582;28;20179;-80
2021/03/21 01:31:12;;;;;;;11.55;10.30;;;;;;;;;;5014177;28;20179;-81
2021/03/21 01:33:38;;;;;;;14.63;10.30;;;;;;;;;;4997882;28;20191;-81
2021/03/21 01:36:06;;;;;;;10.48;8.45;;;;;;;;;;4999402;28;20286;-81
2021/03/21 01:38:32;;;;;;;11.95;9.05;;;;;;;;;;5001056;28;20277;-81
2021/03/21 01:41:01;;;;;;;10.98;9.32;;;;;;;;;;4996848;28;20187;-81
2021/03/21 01:43:34;;;;;;;10.80;8.57;;;;;;;;;;4999261;28;20206;-81
2021/03/21 01:46:01;;;;;;;12.38;9.30;;;;;;;;;;4993970;28;20252;-81
2021/03/21 01:48:30;;;;;;;12.07;9.75;;;;;;;;;;4999523;28;20203;-81
2021/03/21 01:51:10;;;;;;;10.98;9.18;;;;;;;;;;4998578;28;20207;-81
2021/03/21 01:53:37;;;;;;;11.02;8.98;;;;;;;;;;5003634;28;20195;-81
2021/03/21 01:56:06;;;;;;;11.90;9.02;;;;;;;;;;5011703;28;20207;-81
2021/03/21 01:58:33;;;;;;;11.77;10.20;;;;;;;;;;5002295;28;20203;-81
2021/03/21 02:01:00;;;;;;;11.73;9.95;;;;;;;;;;4996972;28;20220;-81
2021/03/21 02:03:26;;;;;;;10.52;9.00;;;;;;;;;;4997711;28;20239;-81
2021/03/21 02:05:56;;;;;;;12.15;9.48;;;;;;;;;;5000288;28;20269;-81
2021/03/21 02:08:41;;;;;;;11.95;10.00;;;;;;;;;;5000042;28;20519;-81
2021/03/21 02:11:27;;;;;;;10.63;9.55;;;;;;;;;;5015452;28;20317;-81
2021/03/21 02:14:32;;;;;;;10.20;8.52;;;;;;;;;;4957251;28;20255;-81
2021/03/21 02:17:06;;;;;;;10.35;8.70;;;;;;;;;;4889542;29;20190;-80
2021/03/21 02:19:34;;;;;;;11.10;8.55;;;;;;;;;;4891152;29;20239;-81
2021/03/21 02:22:02;;;;;;;11.20;9.73;;;;;;;;;;4885060;29;20191;-81
2021/03/21 02:24:49;;;;;;;11.65;9.30;;;;;;;;;;4884301;29;20212;-81
2021/03/21 02:27:30;;;;;;;11.13;8.18;;;;;;;;;;4884701;29;20192;-81
2021/03/21 02:30:04;;;;;;;11.30;9.50;;;;;;;;;;4879026;29;20211;-81
2021/03/21 02:32:33;;;;;;;11.75;8.43;;;;;;;;;;4888348;29;20203;-80
2021/03/21 02:35:18;;;;;;;10.52;8.85;;;;;;;;;;4884448;29;20222;-81
2021/03/21 02:38:05;;;;;;;10.70;9.32;;;;;;;;;;4889447;29;20767;-80
2021/03/21 02:40:31;;;;;;;10.98;8.65;;;;;;;;;;4883892;29;20822;-80
2021/03/21 02:43:08;;;;;;;10.30;8.73;;;;;;;;;;4887347;29;20255;-81
2021/03/21 02:45:37;;;;;;;13.77;10.23;;;;;;;;;;4883560;29;20207;-81
2021/03/21 02:48:10;;;;;;;11.65;9.48;;;;;;;;;;4936607;28;20211;-81
2021/03/21 02:50:38;;;;;;;16.42;10.57;;;;;;;;;;4981492;28;20199;-80
2021/03/21 02:53:23;;;;;;;12.05;9.95;;;;;;;;;;5001768;28;20255;-81
2021/03/21 02:55:50;;;;;;;10.50;9.43;;;;;;;;;;5000385;28;20221;-80
2021/03/21 02:58:25;;;;;;;12.27;10.77;;;;;;;;;;5006124;28;20211;-81
2021/03/21 03:00:53;;;;;;;14.88;11.02;;;;;;;;;;5001996;28;20195;-81
2021/03/21 03:03:21;;;;;;;12.30;10.75;;;;;;;;;;4995334;28;20179;-81
2021/03/21 03:05:52;;;;;;;11.73;9.77;;;;;;;;;;5004201;28;20198;-81
2021/03/21 03:08:22;;;;;;;13.65;10.07;;;;;;;;;;5003246;28;20258;-81
2021/03/21 03:10:50;;;;;;;11.43;10.20;;;;;;;;;;4992325;28;20223;-81
2021/03/21 03:13:24;;;;;;;14.52;11.18;;;;;;;;;;4998492;28;20250;-81
2021/03/21 03:15:51;;;;;;;14.43;10.57;;;;;;;;;;5000173;28;20213;-80
2021/03/21 03:18:36;;;;;;;12.80;10.68;;;;;;;;;;4999606;28;20187;-81
2021/03/21 03:21:24;;;;;;;12.52;10.63;;;;;;;;;;5009805;28;20254;-81
2021/03/21 03:23:57;;;;;;;13.82;10.63;;;;;;;;;;4995094;28;20214;-81
2021/03/21 03:26:27;;;;;;;13.85;10.55;;;;;;;;;;5001741;28;20183;-81
2021/03/21 03:28:59;;;;;;;13.27;11.00;;;;;;;;;;5000208;28;20192;-81
2021/03/21 03:31:33;;;;;;;12.23;10.65;;;;;;;;;;5001491;28;20171;-81
2021/03/21 03:33:59;;;;;;;12.75;10.20;;;;;;;;;;5015383;28;20261;-80
2021/03/21 03:36:25;;;;;;;14.98;10.48;;;;;;;;;;4998019;28;20211;-81
2021/03/21 03:38:52;;;;;;;15.15;11.25;;;;;;;;;;5002079;28;20265;-81
2021/03/21 03:41:36;;;;;;;14.52;11.95;;;;;;;;;;5001326;28;20179;-81
2021/03/21 03:44:08;;;;;;;13.70;11.45;;;;;;;;;;5015468;28;20183;-81
2021/03/21 03:46:37;;;;;;;17.35;10.90;;;;;;;;;;4997302;28;20176;-80
2021/03/21 03:49:09;;;;;;;13.40;10.80;;;;;;;;;;5003339;28;20172;-81
2021/03/21 03:51:51;;;;;;;16.13;12.75;;;;;;;;;;5005201;28;20187;-81
2021/03/21 03:54:25;;;;;;;12.05;10.38;;;;;;;;;;4999581;28;20211;-81
2021/03/21 03:56:55;;;;;;;14.52;10.90;;;;;;;;;;5004742;28;20193;-81
2021/03/21 03:59:40;;;;;;;12.85;10.55;;;;;;;;;;5005427;28;20179;-81
2021/03/21 04:02:13;;;;;;;12.70;10.60;;;;;;;;;;5000479;28;20190;-80
2021/03/21 04:04:50;;;;;;;12.77;11.35;;;;;;;;;;4999964;28;20175;-81
2021/03/21 04:07:28;;;;;;;13.50;10.65;;;;;;;;;;5003075;28;20275;-81
2021/03/21 04:09:57;;;;;;;13.55;11.15;;;;;;;;;;5000955;28;20348;-81
2021/03/21 04:12:30;;;;;;;17.08;13.00;;;;;;;;;;5000065;28;20306;-81
2021/03/21 04:15:00;;;;;;;14.82;11.50;;;;;;;;;;4997329;28;20240;-80
2021/03/21 04:17:26;;;;;;;14.65;11.68;;;;;;;;;;5001965;28;20191;-81
2021/03/21 04:19:56;;;;;;;15.03;11.50;;;;;;;;;;5003183;28;20266;-81
2021/03/21 04:22:30;;;;;;;20.15;12.68;;;;;;;;;;5001313;28;20423;-81
2021/03/21 04:25:05;;;;;;;14.00;11.95;;;;;;;;;;4999711;28;20257;-81
2021/03/21 04:27:33;;;;;;;13.85;11.85;;;;;;;;;;5000218;28;20183;-81
2021/03/21 04:30:02;;;;;;;17.50;12.95;;;;;;;;;;4996275;28;20195;-81
2021/03/21 04:32:34;;;;;;;17.20;12.77;;;;;;;;;;5002596;28;20187;-81
2021/03/21 04:35:03;;;;;;;15.95;12.07;;;;;;;;;;4998813;28;20207;-81
2021/03/21 04:37:29;;;;;;;17.50;11.35;;;;;;;;;;5003658;28;20171;-81
2021/03/21 04:39:56;;;;;;;15.80;12.50;;;;;;;;;;4998817;28;20195;-81
2021/03/21 04:42:27;;;;;;;16.40;12.18;;;;;;;;;;5000318;28;20275;-81
2021/03/21 04:44:55;;;;;;;17.02;13.00;;;;;;;;;;4999272;28;20562;-81
2021/03/21 04:47:34;;;;;;;18.08;13.45;;;;;;;;;;5004326;28;20190;-80
2021/03/21 04:50:00;;;;;;;17.63;12.50;;;;;;;;;;4999555;28;20560;-81
2021/03/21 04:52:26;;;;;;;18.33;13.10;;;;;;;;;;5003805;28;20187;-80
2021/03/21 04:54:54;;;;;;;17.65;13.93;;;;;;;;;;4998663;28;20243;-80
2021/03/21 04:57:29;;;;;;;14.60;12.60;;;;;;;;;;5004289;28;20179;-81
2021/03/21 04:59:55;;;;;;;18.75;13.13;;;;;;;;;;5001301;28;20245;-81
2021/03/21 05:02:30;;;;;;;18.48;13.90;;;;;;;;;;5003858;28;20179;-81
2021/03/21 05:05:01;;;;;;;19.80;14.30;;;;;;;;;;4998538;28;20187;-81
2021/03/21 05:07:46;;;;;;;15.45;12.63;;;;;;;;;;5003609;28;20180;-81
2021/03/21 05:10:24;;;;;;;16.98;13.10;;;;;;;;;;4999573;28;20215;-82
2021/03/21 05:13:07;;;;;;;18.38;13.25;;;;;;;;;;5011931;28;20199;-80
2021/03/21 05:15:44;;;;;;;20.67;13.73;;;;;;;;;;5009892;28;20324;-81
2021/03/21 05:18:14;;;;;;;19.92;13.85;;;;;;;;;;4999626;28;20186;-81
2021/03/21 05:21:06;;;;;;;18.15;12.85;;;;;;;;;;4992754;28;20206;-81
2021/03/21 05:23:32;;;;;;;17.33;12.95;;;;;;;;;;4942662;29;20193;-81
2021/03/21 05:26:03;;;;;;;21.27;15.30;;;;;;;;;;4938273;29;20197;-81
2021/03/21 05:28:32;;;;;;;16.88;12.95;;;;;;;;;;4939623;29;20757;-81
2021/03/21 05:30:58;;;;;;;20.50;13.65;;;;;;;;;;4927441;29;20185;-81
2021/03/21 05:33:24;;;;;;;18.35;13.73;;;;;;;;;;4938075;29;20190;-80
2021/03/21 05:35:53;;;;;;;17.65;13.73;;;;;;;;;;4925848;29;20204;-81
2021/03/21 05:38:28;;;;;;;20.38;13.65;;;;;;;;;;4939946;29;20248;-81
2021/03/21 05:41:12;;;;;;;16.63;13.15;;;;;;;;;;4937902;29;20231;-81
2021/03/21 05:43:44;;;;;;;18.40;14.10;;;;;;;;;;4939966;29;20196;-79
2021/03/21 05:46:13;;;;;;;19.90;15.10;;;;;;;;;;4937053;29;20216;-81
2021/03/21 05:49:01;;;;;;;24.70;14.93;;;;;;;;;;4932019;29;20181;-79
2021/03/21 05:51:30;;;;;;;21.92;14.38;;;;;;;;;;4923875;29;20296;-80
2021/03/21 05:53:56;;;;;;;19.30;14.73;;;;;;;;;;4942466;29;20204;-80
2021/03/21 05:56:34;;;;;;;19.73;14.40;;;;;;;;;;4952947;29;20193;-80
2021/03/21 05:59:08;;;;;;;21.63;14.10;;;;;;;;;;4917863;29;20500;-79
2021/03/21 06:01:53;;;;;;;20.52;14.73;;;;;;;;;;5000175;28;20171;-81
2021/03/21 06:04:19;;;;;;;18.25;14.65;;;;;;;;;;5002790;28;20175;-81
2021/03/21 06:07:03;;;;;;;18.83;14.38;;;;;;;;;;4993797;28;20262;-81
2021/03/21 06:09:44;;;;;;;21.15;15.60;;;;;;;;;;4997764;28;20198;-81
2021/03/21 06:12:23;;;;;;;18.90;15.30;;;;;;;;;;4998690;28;20249;-82
2021/03/21 06:15:08;;;;;;;19.75;14.13;;;;;;;;;;4991689;28;20207;-81
2021/03/21 06:17:34;;;;;;;18.38;14.85;;;;;;;;;;5001839;28;20198;-82
2021/03/21 06:20:02;;;;;;;20.73;15.20;;;;;;;;;;4998105;28;20183;-82
2021/03/21 06:22:44;;;;;;;20.85;15.02;;;;;;;;;;5003037;28;20422;-81
2021/03/21 06:25:13;;;;;;;22.40;16.25;;;;;;;;;;5008431;28;20187;-81
2021/03/21 06:27:58;;;;;;;24.40;16.50;;;;;;;;;;4992931;28;20183;-81
2021/03/21 06:30:36;;;;;;;20.80;15.60;;;;;;;;;;4996959;28;20742;-81
2021/03/21 06:33:21;;;;;;;22.13;15.65;;;;;;;;;;4999770;28;20191;-81
2021/03/21 06:36:05;;;;;;;22.73;15.10;;;;;;;;;;4991654;28;20210;-80
2021/03/21 06:38:43;;;;;;;22.65;16.52;;;;;;;;;;5001793;28;20187;-81
2021/03/21 06:41:28;;;;;;;25.63;16.80;;;;;;;;;;4998085;28;20202;-81
2021/03/21 06:44:07;;;;;;;25.30;17.55;;;;;;;;;;4998965;28;20481;-81
2021/03/21 06:46:52;;;;;;;25.85;17.85;;;;;;;;;;4998733;28;20186;-81
2021/03/21 06:49:33;;;;;;;24.63;18.33;;;;;;;;;;5002356;28;20647;-82
2021/03/21 06:52:08;;;;;;;22.05;17.17;;;;;;;;;;4993903;28;20175;-81
2021/03/21 06:54:34;;;;;;;24.88;16.25;;;;;;;;;;4998134;28;20210;-81
2021/03/21 06:57:19;;;;;;;20.33;15.50;;;;;;;;;;4999856;28;20233;-81
2021/03/21 07:00:05;;;;;;;25.85;17.48;;;;;;;;;;5000509;28;20450;-81
2021/03/21 07:02:43;;;;;;;23.30;17.10;;;;;;;;;;4995451;28;20205;-80
2021/03/21 07:05:09;;;;;;;21.40;16.08;;;;;;;;;;5016664;28;20262;-81
2021/03/21 07:07:54;;;;;;;23.77;15.98;;;;;;;;;;5001523;28;20182;-81
2021/03/21 07:10:26;;;;;;;22.98;16.23;;;;;;;;;;4996679;28;20268;-81
2021/03/21 07:12:52;;;;;;;24.73;17.08;;;;;;;;;;4999680;28;20183;-81
2021/03/21 07:15:18;;;;;;;22.42;16.52;;;;;;;;;;5004574;28;20211;-81
2021/03/21 07:17:47;;;;;;;22.97;17.80;;;;;;;;;;4999862;28;20187;-81
2021/03/21 07:20:22;;;;;;;25.23;16.77;;;;;;;;;;5005004;28;20956;-81
2021/03/21 07:22:54;;;;;;;19.95;16.23;;;;;;;;;;4999546;28;20269;-80
2021/03/21 07:25:32;;;;;;;25.23;17.48;;;;;;;;;;5019870;28;20183;-80
2021/03/21 07:28:17;;;;;;;22.60;16.45;;;;;;;;;;5000526;28;20183;-81
2021/03/21 07:30:59;;;;;;;23.92;17.63;;;;;;;;;;5000196;28;20632;-81
2021/03/21 07:33:43;;;;;;;28.63;17.58;;;;;;;;;;5002113;28;20183;-81
2021/03/21 07:36:22;;;;;;;28.17;19.20;;;;;;;;;;5000900;28;20203;-81
2021/03/21 07:39:07;;;;;;;26.77;18.65;;;;;;;;;;5000771;28;20254;-80
2021/03/21 07:42:05;;;;;;;22.58;16.58;;;;;;;;;;5011901;28;20183;-81
2021/03/21 07:44:44;;;;;;;26.33;18.50;;;;;;;;;;4928590;29;20201;-82
2021/03/21 07:47:16;;;;;;;27.17;19.20;;;;;;;;;;4944650;29;20695;-81
2021/03/21 07:49:50;;;;;;;24.02;17.27;;;;;;;;;;4940312;29;20703;-80
2021/03/21 07:52:44;;;;;;;25.17;18.15;;;;;;;;;;4940939;29;20177;-80
2021/03/21 07:55:16;;;;;;;29.92;20.75;;;;;;;;;;4933132;29;20221;-81
2021/03/21 07:57:52;;;;;;;25.42;18.65;;;;;;;;;;4925863;29;20200;-80
2021/03/21 08:00:18;;;;;;;23.50;17.10;;;;;;;;;;4927462;29;20193;-81
2021/03/21 08:02:44;;;;;;;27.77;19.58;;;;;;;;;;4941368;29;20257;-81
2021/03/21 08:05:23;;;;;;;26.17;19.50;;;;;;;;;;4936585;29;20213;-81
2021/03/21 08:07:52;;;;;;;24.85;19.35;;;;;;;;;;4940183;29;20437;-81
2021/03/21 08:10:26;;;;;;;29.00;20.33;;;;;;;;;;4937125;29;20204;-81
2021/03/21 08:13:15;;;;;;;31.00;21.23;;;;;;;;;;4938640;29;20208;-80
2021/03/21 08:15:41;;;;;;;31.33;23.50;;;;;;;;;;4940931;29;20223;-81
2021/03/21 08:18:12;;;;;;;28.80;21.63;;;;;;;;;;4932525;29;20272;-81
2021/03/21 08:20:39;;;;;;;45.78;33.60;;;;;;;;;;4977676;28;20587;-81
2021/03/21 08:23:05;;;;;;;39.17;26.10;;;;;;;;;;5005077;28;20215;-81
2021/03/21 08:25:33;;;;;;;36.30;25.30;;;;;;;;;;4995644;28;20188;-81
2021/03/21 08:27:59;;;;;;;34.17;23.40;;;;;;;;;;4993948;28;20446;-81
2021/03/21 08:30:27;;;;;;;33.00;22.35;;;;;;;;;;4995623;28;20198;-81
2021/03/21 08:32:57;;;;;;;31.65;22.00;;;;;;;;;;4998473;28;20216;-80
2021/03/21 08:35:31;;;;;;;32.58;22.80;;;;;;;;;;5000361;28;20203;-79
2021/03/21 08:38:14;;;;;;;33.55;21.27;;;;;;;;;;4994091;28;20263;-81
2021/03/21 08:40:40;;;;;;;33.50;23.05;;;;;;;;;;4996860;28;20198;-81
2021/03/21 08:43:09;;;;;;;36.15;22.70;;;;;;;;;;4995199;28;20172;-80
2021/03/21 08:45:54;;;;;;;34.28;22.30;;;;;;;;;;5010237;28;20271;-81
2021/03/21 08:48:25;;;;;;;32.67;22.05;;;;;;;;;;5000543;28;20187;-81
2021/03/21 08:50:56;;;;;;;34.15;22.80;;;;;;;;;;4998110;28;20212;-81
2021/03/21 08:53:24;;;;;;;34.42;22.88;;;;;;;;;;5004355;28;20195;-81
2021/03/21 08:56:08;;;;;;;32.72;23.92;;;;;;;;;;5010045;28;20206;-80
2021/03/21 08:58:34;;;;;;;34.80;23.27;;;;;;;;;;5011462;28;20206;-81
2021/03/21 09:01:08;;;;;;;32.93;25.07;;;;;;;;;;5014394;28;20179;-81
2021/03/21 09:03:34;;;;;;;34.42;23.27;;;;;;;;;;5010419;28;20467;-81
2021/03/21 09:06:01;;;;;;;40.97;28.50;;;;;;;;;;4999185;28;20191;-82
2021/03/21 09:08:28;;;;;;;43.95;29.52;;;;;;;;;;4998012;28;20444;-79
2021/03/21 09:10:55;;;;;;;40.80;29.25;;;;;;;;;;4995507;28;20294;-82
2021/03/21 09:13:23;;;;;;;40.78;26.88;;;;;;;;;;5001637;28;20176;-81
2021/03/21 09:15:59;;;;;;;39.20;26.35;;;;;;;;;;5000897;28;20203;-82
2021/03/21 09:18:26;;;;;;;40.15;25.98;;;;;;;;;;5000257;28;20182;-82
2021/03/21 09:20:55;;;;;;;39.65;26.83;;;;;;;;;;4997453;28;20194;-81
2021/03/21 09:23:27;;;;;;;43.70;26.25;;;;;;;;;;4999033;28;20179;-80
2021/03/21 09:25:56;;;;;;;40.50;26.42;;;;;;;;;;4997393;28;20215;-80
2021/03/21 09:28:23;;;;;;;43.35;28.10;;;;;;;;;;4994471;28;20179;-82
2021/03/21 09:30:49;;;;;;;45.03;27.35;;;;;;;;;;4995473;28;20192;-79
2021/03/21 09:33:21;;;;;;;47.70;28.80;;;;;;;;;;5002361;28;20183;-81
2021/03/21 09:35:47;;;;;;;41.95;27.92;;;;;;;;;;4995081;28;20226;-81
2021/03/21 09:38:18;;;;;;;44.17;28.53;;;;;;;;;;4992329;28;20190;-81
2021/03/21 09:40:46;;;;;;;44.65;30.00;;;;;;;;;;4997602;28;20414;-82
2021/03/21 09:43:17;;;;;;;47.75;27.02;;;;;;;;;;4999179;28;20198;-82
2021/03/21 09:45:44;;;;;;;42.80;27.92;;;;;;;;;;4997604;28;20445;-82
2021/03/21 09:48:20;;;;;;;42.30;26.90;;;;;;;;;;4999366;28;20187;-81
2021/03/21 09:51:04;;;;;;;47.47;28.10;;;;;;;;;;5001552;28;20266;-81
2021/03/21 09:53:30;;;;;;;43.90;27.70;;;;;;;;;;5001604;28;20218;-83
2021/03/21 09:55:59;;;;;;;40.72;26.25;;;;;;;;;;4995739;28;20257;-81
2021/03/21 09:58:29;;;;;;;45.97;29.50;;;;;;;;;;4991015;28;20190;-82
2021/03/21 10:01:10;;;;;;;36.63;26.85;;;;;;;;;;5000165;28;20183;-82
2021/03/21 10:03:37;;;;;;;44.67;27.85;;;;;;;;;;4996117;28;20195;-82
2021/03/21 10:06:06;;;;;;;42.35;27.90;;;;;;;;;;4998994;28;20202;-81
2021/03/21 10:08:51;;;;;;;42.67;27.02;;;;;;;;;;5002096;28;20278;-82
2021/03/21 10:11:36;;;;;;;44.38;27.15;;;;;;;;;;5013046;28;20473;-82
2021/03/21 10:14:22;;;;;;;38.35;24.10;;;;;;;;;;4998087;28;20186;-83
2021/03/21 10:16:52;;;;;;;36.72;25.80;;;;;;;;;;4999833;28;20175;-82
2021/03/21 10:19:36;;;;;;;37.17;25.75;;;;;;;;;;5002614;28;20174;-82
2021/03/21 10:22:22;;;;;;;37.17;25.10;;;;;;;;;;4993727;28;20175;-82
2021/03/21 10:24:49;;;;;;;36.65;26.13;;;;;;;;;;4997024;28;20237;-83
2021/03/21 10:27:20;;;;;;;39.15;23.55;;;;;;;;;;4998989;28;20191;-84
2021/03/21 10:29:51;;;;;;;33.85;23.92;;;;;;;;;;5001572;28;20179;-82
2021/03/21 10:32:22;;;;;;;35.20;23.90;;;;;;;;;;5001651;28;20186;-83
2021/03/21 10:34:49;;;;;;;34.80;23.83;;;;;;;;;;5001893;28;20286;-81
2021/03/21 10:37:34;;;;;;;37.33;24.40;;;;;;;;;;5015640;28;20226;-82
2021/03/21 10:40:01;;;;;;;36.10;23.08;;;;;;;;;;5005398;28;20610;-81
2021/03/21 10:42:39;;;;;;;33.90;23.02;;;;;;;;;;5005791;28;20203;-82
2021/03/21 10:45:07;;;;;;;33.20;22.98;;;;;;;;;;5003107;28;20196;-82
2021/03/21 10:47:33;;;;;;;33.88;24.10;;;;;;;;;;5000931;28;20192;-82
2021/03/21 10:50:00;;;;;;;28.25;21.70;;;;;;;;;;5005159;28;20186;-82
2021/03/21 10:52:39;;;;;;;26.65;20.65;;;;;;;;;;5002143;28;20222;-82
2021/03/21 10:55:11;;;;;;;29.25;21.25;;;;;;;;;;4996755;28;20283;-83
2021/03/21 10:57:40;;;;;;;25.80;19.98;;;;;;;;;;4999038;28;20184;-83
2021/03/21 11:00:12;;;;;;;27.65;19.77;;;;;;;;;;4996492;28;20188;-83
2021/03/21 11:02:42;;;;;;;30.02;20.55;;;;;;;;;;5005474;28;20187;-82
2021/03/21 11:05:21;;;;;;;27.85;19.98;;;;;;;;;;5000698;28;20194;-82
2021/03/21 11:07:48;;;;;;;25.42;19.45;;;;;;;;;;4999495;28;20256;-82
2021/03/21 11:10:14;;;;;;;29.95;21.27;;;;;;;;;;5001210;28;20191;-84
2021/03/21 11:12:41;;;;;;;25.80;19.80;;;;;;;;;;4996708;28;20202;-82
2021/03/21 11:15:25;;;;;;;28.45;19.88;;;;;;;;;;5001478;28;20227;-80
2021/03/21 11:17:52;;;;;;;25.88;19.98;;;;;;;;;;4994220;28;20638;-82
2021/03/21 11:20:26;;;;;;;31.10;20.75;;;;;;;;;;5001448;28;20564;-82
2021/03/21 11:22:52;;;;;;;31.08;20.10;;;;;;;;;;4999443;28;20179;-83
2021/03/21 11:25:29;;;;;;;25.23;20.70;;;;;;;;;;5001428;28;20205;-81
2021/03/21 11:27:55;;;;;;;28.73;20.70;;;;;;;;;;5004508;28;20186;-81
2021/03/21 11:30:29;;;;;;;28.15;21.42;;;;;;;;;;4999521;28;20195;-79
2021/03/21 11:32:56;;;;;;;24.08;18.00;;;;;;;;;;5001365;28;20183;-81
2021/03/21 11:35:29;;;;;;;26.30;17.90;;;;;;;;;;5004553;28;20293;-80
2021/03/21 11:37:56;;;;;;;25.50;17.85;;;;;;;;;;5000265;28;20195;-82
2021/03/21 11:40:27;;;;;;;28.35;19.38;;;;;;;;;;5002103;28;20588;-83
2021/03/21 11:43:23;;;;;;;28.15;19.30;;;;;;;;;;5001462;28;20257;-81
2021/03/21 11:45:50;;;;;;;23.20;17.17;;;;;;;;;;4999338;28;20183;-80
2021/03/21 11:48:43;;;;;;;25.45;18.50;;;;;;;;;;5004621;28;20215;-82
2021/03/21 11:51:11;;;;;;;25.95;16.40;;;;;;;;;;4999130;28;20208;-82
2021/03/21 11:53:39;;;;;;;24.60;16.30;;;;;;;;;;4999558;28;20219;-82
2021/03/21 11:56:06;;;;;;;30.50;17.60;;;;;;;;;;4999900;28;21382;-82
2021/03/21 11:58:39;;;;;;;21.58;15.68;;;;;;;;;;4988304;28;20269;-81
2021/03/21 12:01:12;;;;;;;23.13;16.98;;;;;;;;;;5002177;28;20210;-82
2021/03/21 12:03:46;;;;;;;24.50;15.23;;;;;;;;;;5000221;28;20186;-83
2021/03/21 12:06:32;;;;;;;25.45;17.17;;;;;;;;;;4996220;28;20207;-82
2021/03/21 12:08:59;;;;;;;21.70;14.95;;;;;;;;;;4997799;28;20203;-80
2021/03/21 12:11:27;;;;;;;19.65;14.77;;;;;;;;;;5002583;28;20227;-82
2021/03/21 12:13:54;;;;;;;18.48;15.05;;;;;;;;;;4999225;28;20175;-82
2021/03/21 12:16:36;;;;;;;17.50;13.23;;;;;;;;;;5004367;28;20218;-82
2021/03/21 12:19:03;;;;;;;20.15;15.00;;;;;;;;;;5010594;28;20259;-82
2021/03/21 12:21:30;;;;;;;17.10;14.65;;;;;;;;;;4999300;28;20206;-82
2021/03/21 12:24:00;;;;;;;16.63;14.35;;;;;;;;;;5002201;28;20726;-81
2021/03/21 12:26:32;;;;;;;16.85;13.52;;;;;;;;;;4992260;28;20195;-82
2021/03/21 12:29:05;;;;;;;19.75;13.98;;;;;;;;;;5012832;28;20601;-83
2021/03/21 12:31:31;;;;;;;15.52;13.63;;;;;;;;;;4995676;28;20190;-82
2021/03/21 12:33:58;;;;;;;16.80;12.43;;;;;;;;;;5000003;28;20206;-81
2021/03/21 12:36:27;;;;;;;16.13;12.85;;;;;;;;;;4994732;28;20809;-81
2021/03/21 12:38:58;;;;;;;17.70;13.68;;;;;;;;;;4999549;28;20230;-83
2021/03/21 12:41:24;;;;;;;17.63;12.82;;;;;;;;;;5002811;28;20183;-82
2021/03/21 12:44:09;;;;;;;15.33;12.53;;;;;;;;;;4997195;28;20179;-81
2021/03/21 12:46:50;;;;;;;15.57;11.27;;;;;;;;;;5001151;28;20480;-82
2021/03/21 12:49:31;;;;;;;13.65;11.02;;;;;;;;;;5014880;28;20206;-82
2021/03/21 12:52:01;;;;;;;11.60;9.93;;;;;;;;;;5015419;28;20183;-80
2021/03/21 12:54:28;;;;;;;13.00;10.98;;;;;;;;;;4998975;28;20469;-83
2021/03/21 12:56:54;;;;;;;11.88;10.68;;;;;;;;;;5004067;28;20190;-81
2021/03/21 12:59:20;;;;;;;9.77;8.68;;;;;;;;;;5002922;28;20188;-84
2021/03/21 13:01:47;;;;;;;8.68;7.82;;;;;;;;;;4998080;28;20191;-82
2021/03/21 13:04:13;;;;;;;9.82;8.70;;;;;;;;;;5000100;28;20175;-81
2021/03/21 13:06:39;;;;;;;9.57;7.97;;;;;;;;;;4993661;28;20202;-84
2021/03/21 13:09:05;;;;;;;9.32;6.28;;;;;;;;;;5000691;28;20490;-80
2021/03/21 13:11:32;;;;;;;9.70;7.55;;;;;;;;;;5000449;28;20233;-82
2021/03/21 13:13:58;;;;;;;6.45;5.78;;;;;;;;;;4998370;28;20194;-81
2021/03/21 13:16:24;;;;;;;8.73;6.70;;;;;;;;;;5003381;28;20230;-80
2021/03/21 13:18:50;;;;;;;8.73;7.83;;;;;;;;;;5000025;28;20458;-82
2021/03/21 13:21:16;;;;;;;8.65;7.70;;;;;;;;;;4998393;28;20477;-82
2021/03/21 13:23:42;;;;;;;11.15;9.18;;;;;;;;;;5003027;28;20175;-82
2021/03/21 13:26:08;;;;;;;11.40;8.30;;;;;;;;;;4998677;28;20213;-81
2021/03/21 13:28:34;;;;;;;8.97;7.73;;;;;;;;;;4998318;28;20434;-79
2021/03/21 13:31:01;;;;;;;8.68;7.82;;;;;;;;;;4997148;28;20444;-84
2021/03/21 13:33:28;;;;;;;6.18;5.40;;;;;;;;;;4998730;28;20207;-80
2021/03/21 13:35:55;;;;;;;7.28;6.07;;;;;;;;;;5001666;28;20213;-81
2021/03/21 13:38:22;;;;;;;9.07;4.90;;;;;;;;;;4999000;28;20182;-82
2021/03/21 13:40:48;;;;;;;6.47;5.38;;;;;;;;;;4996490;28;20187;-81
2021/03/21 13:43:15;;;;;;;7.05;4.60;;;;;;;;;;5013948;28;20255;-81
2021/03/21 13:45:43;;;;;;;7.70;4.30;;;;;;;;;;4993666;28;20254;-84
2021/03/21 13:48:09;;;;;;;5.23;3.70;;;;;;;;;;5002283;28;20509;-84
2021/03/21 13:50:36;;;;;;;5.53;4.20;;;;;;;;;;5001894;28;20440;-81
2021/03/21 13:53:03;;;;;;;6.40;4.75;;;;;;;;;;4997921;28;20461;-82
2021/03/21 13:55:32;;;;;;;5.93;4.78;;;;;;;;;;4998522;28;20220;-81
2021/03/21 13:57:59;;;;;;;5.80;4.40;;;;;;;;;;5002874;28;20184;-80
2021/03/21 14:00:25;;;;;;;6.45;4.60;;;;;;;;;;5000743;28;20209;-82
2021/03/21 14:02:51;;;;;;;7.82;4.80;;;;;;;;;;5001239;28;20648;-80
2021/03/21 14:05:17;;;;;;;6.33;4.70;;;;;;;;;;4999631;28;20209;-82
2021/03/21 14:07:43;;;;;;;4.60;3.90;;;;;;;;;;4999989;28;20426;-81
2021/03/21 14:10:10;;;;;;;4.75;3.83;;;;;;;;;;5017296;28;20198;-81
2021/03/21 14:12:36;;;;;;;4.55;4.15;;;;;;;;;;4997046;28;20296;-87
2021/03/21 14:15:03;;;;;;;3.92;3.50;;;;;;;;;;5003475;28;20228;-82
2021/03/21 14:17:30;;;;;;;5.30;3.70;;;;;;;;;;5005123;28;20193;-82
2021/03/21 14:19:55;;;;;;;4.30;3.90;;;;;;;;;;5001631;28;20199;-81
2021/03/21 14:22:21;;;;;;;5.90;4.40;;;;;;;;;;5002734;28;20186;-83
2021/03/21 14:24:48;;;;;;;5.40;4.90;;;;;;;;;;5000761;28;20461;-83
2021/03/21 14:27:14;;;;;;;5.00;4.60;;;;;;;;;;5002723;28;20196;-83
2021/03/21 14:29:41;;;;;;;6.03;5.20;;;;;;;;;;5002397;28;20200;-82
2021/03/21 14:32:07;;;;;;;5.53;5.03;;;;;;;;;;5016614;28;20438;-82
2021/03/21 14:34:33;;;;;;;5.88;5.45;;;;;;;;;;4993207;28;20215;-81
2021/03/21 14:36:59;;;;;;;5.97;5.10;;;;;;;;;;4997317;28;20194;-81
2021/03/21 14:39:25;;;;;;;4.55;4.15;;;;;;;;;;5010378;28;20184;-83
2021/03/21 14:41:51;;;;;;;4.93;4.30;;;;;;;;;;4999438;28;20180;-82
2021/03/21 14:44:17;;;;;;;4.70;4.30;;;;;;;;;;5000614;28;20445;-84
2021/03/21 14:46:43;;;;;;;5.43;4.85;;;;;;;;;;4997333;28;20437;-81